MSR3350 LFBO-HECA
Flight info
| Callsign | MSR3350 |
|---|---|
| Flight time | 3h 38m |
| Altitude | 39000 |
| Route | AMOLO DCT DEGOL DCT FJR DCT AMFAC DCT BATIV DCT PELOS DCT IPROM DCT SUBOK/N0481F410 DCT ABNAT DCT EVLIB DCT ARLOS DCT SALUN N705 MMA P751 DASUM Y234 FYM W613 ALPID W8 CVO |
| Aircraft | A359/H-SDE2E3GHIJ3J4J5LM1ORWXY/LB1D1 |
Departure
| Time | 2026-05-05 17:01 |
|---|---|
| Airport | Toulouse-Blagnac Airport (LFBO) |
Arrival
| Time | 2026-05-05 20:39 |
|---|---|
| Airport | Cairo International Airport (HECA) |
| Time | Latitude | Longitude | Altitude | Speed | Heading |
|---|---|---|---|---|---|
| 2026-05-05 16:46 | 43.63365 | 1.35029 | 500 ft | 0 kts | 230° |
| 2026-05-05 16:50 | 43.63373 | 1.35042 | 500 ft | 4 kts | 233° |
| 2026-05-05 16:50 | 43.63389 | 1.35071 | 500 ft | 2 kts | 232° |
| 2026-05-05 16:50 | 43.63405 | 1.35096 | 500 ft | 4 kts | 210° |
| 2026-05-05 16:50 | 43.63424 | 1.35106 | 500 ft | 4 kts | 173° |
| 2026-05-05 16:51 | 43.63446 | 1.35096 | 500 ft | 4 kts | 147° |
| 2026-05-05 16:51 | 43.63461 | 1.35082 | 500 ft | 1 kts | 143° |
| 2026-05-05 16:54 | 43.63415 | 1.35132 | 500 ft | 17 kts | 142° |
| 2026-05-05 16:54 | 43.63313 | 1.35241 | 500 ft | 20 kts | 142° |
| 2026-05-05 16:54 | 43.63196 | 1.35359 | 500 ft | 22 kts | 145° |
| 2026-05-05 16:55 | 43.63059 | 1.35468 | 500 ft | 24 kts | 155° |
| 2026-05-05 16:55 | 43.62974 | 1.35645 | 500 ft | 24 kts | 96° |
| 2026-05-05 16:55 | 43.62904 | 1.35854 | 500 ft | 25 kts | 136° |
| 2026-05-05 16:55 | 43.62761 | 1.36004 | 500 ft | 26 kts | 142° |
| 2026-05-05 16:56 | 43.62611 | 1.36159 | 500 ft | 28 kts | 143° |
| 2026-05-05 16:56 | 43.62451 | 1.36322 | 500 ft | 30 kts | 143° |
| 2026-05-05 16:56 | 43.62284 | 1.36499 | 500 ft | 31 kts | 143° |
| 2026-05-05 16:56 | 43.62108 | 1.36682 | 500 ft | 32 kts | 143° |
| 2026-05-05 16:57 | 43.61940 | 1.36856 | 500 ft | 31 kts | 142° |
| 2026-05-05 16:57 | 43.61847 | 1.37087 | 500 ft | 28 kts | 69° |
| 2026-05-05 16:57 | 43.61950 | 1.37311 | 500 ft | 28 kts | 54° |
| 2026-05-05 16:57 | 43.62039 | 1.37474 | 500 ft | 20 kts | 53° |
| 2026-05-05 16:58 | 43.62126 | 1.37637 | 500 ft | 21 kts | 65° |
| 2026-05-05 16:58 | 43.62065 | 1.37798 | 500 ft | 21 kts | 140° |
| 2026-05-05 16:58 | 43.61944 | 1.37932 | 500 ft | 23 kts | 142° |
| 2026-05-05 16:58 | 43.61811 | 1.38075 | 500 ft | 25 kts | 142° |
| 2026-05-05 16:59 | 43.61656 | 1.38148 | 500 ft | 20 kts | 210° |
| 2026-05-05 16:59 | 43.61642 | 1.38131 | 500 ft | 0 kts | 224° |
| 2026-05-05 16:59 | 43.61642 | 1.38130 | 500 ft | 1 kts | 224° |
| 2026-05-05 17:00 | 43.61604 | 1.38012 | 500 ft | 14 kts | 293° |
| 2026-05-05 17:00 | 43.61621 | 1.37978 | 500 ft | 0 kts | 317° |
| 2026-05-05 17:00 | 43.61730 | 1.37844 | 500 ft | 56 kts | 320° |
| 2026-05-05 17:01 | 43.62227 | 1.37332 | 500 ft | 121 kts | 322° |
| 2026-05-05 17:01 | 43.63045 | 1.36501 | 686 ft | 159 kts | 323° |
| 2026-05-05 17:01 | 43.63960 | 1.35807 | 1661 ft | 143 kts | 330° |
| 2026-05-05 17:01 | 43.64848 | 1.35199 | 2209 ft | 146 kts | 321° |
| 2026-05-05 17:02 | 43.65630 | 1.34193 | 2487 ft | 162 kts | 313° |
| 2026-05-05 17:02 | 43.66469 | 1.33044 | 2760 ft | 180 kts | 314° |
| 2026-05-05 17:02 | 43.67628 | 1.32117 | 2916 ft | 210 kts | 345° |
| 2026-05-05 17:02 | 43.69153 | 1.32407 | 3118 ft | 242 kts | 22° |
| 2026-05-05 17:03 | 43.70424 | 1.34036 | 3598 ft | 259 kts | 50° |
| 2026-05-05 17:03 | 43.71463 | 1.36122 | 4227 ft | 265 kts | 53° |
| 2026-05-05 17:03 | 43.72528 | 1.38214 | 4879 ft | 270 kts | 52° |
| 2026-05-05 17:03 | 43.73658 | 1.40330 | 5498 ft | 275 kts | 52° |
| 2026-05-05 17:04 | 43.74787 | 1.42383 | 6176 ft | 278 kts | 51° |
| 2026-05-05 17:04 | 43.75994 | 1.44528 | 6819 ft | 281 kts | 51° |
| 2026-05-05 17:04 | 43.77197 | 1.46636 | 7478 ft | 285 kts | 51° |
| 2026-05-05 17:04 | 43.78448 | 1.48799 | 8120 ft | 289 kts | 51° |
| 2026-05-05 17:05 | 43.79715 | 1.50985 | 8765 ft | 293 kts | 51° |
| 2026-05-05 17:05 | 43.80991 | 1.53196 | 9439 ft | 295 kts | 51° |
| 2026-05-05 17:05 | 43.82098 | 1.55600 | 10060 ft | 299 kts | 66° |
| 2026-05-05 17:05 | 43.82817 | 1.58366 | 10402 ft | 312 kts | 73° |
| 2026-05-05 17:06 | 43.83443 | 1.61317 | 10712 ft | 327 kts | 75° |
| 2026-05-05 17:06 | 43.84087 | 1.64394 | 11004 ft | 340 kts | 75° |
| 2026-05-05 17:06 | 43.84765 | 1.67610 | 11295 ft | 353 kts | 75° |
| 2026-05-05 17:06 | 43.85464 | 1.70919 | 11592 ft | 364 kts | 75° |
| 2026-05-05 17:07 | 43.86189 | 1.74318 | 11998 ft | 371 kts | 75° |
| 2026-05-05 17:07 | 43.86926 | 1.77753 | 12486 ft | 375 kts | 75° |
| 2026-05-05 17:07 | 43.87666 | 1.81194 | 12955 ft | 379 kts | 75° |
| 2026-05-05 17:07 | 43.88430 | 1.84748 | 13444 ft | 382 kts | 75° |
| 2026-05-05 17:08 | 43.89193 | 1.88300 | 13913 ft | 385 kts | 75° |
| 2026-05-05 17:08 | 43.89960 | 1.91875 | 14345 ft | 388 kts | 75° |
| 2026-05-05 17:08 | 43.90731 | 1.95477 | 14782 ft | 391 kts | 75° |
| 2026-05-05 17:08 | 43.91487 | 1.99103 | 15219 ft | 393 kts | 77° |
| 2026-05-05 17:09 | 43.91848 | 2.02849 | 15669 ft | 392 kts | 93° |
| 2026-05-05 17:09 | 43.91489 | 2.06591 | 16144 ft | 391 kts | 104° |
| 2026-05-05 17:09 | 43.90881 | 2.10268 | 16603 ft | 393 kts | 106° |
| 2026-05-05 17:09 | 43.90246 | 2.13927 | 17045 ft | 395 kts | 106° |
| 2026-05-05 17:10 | 43.89597 | 2.17700 | 17502 ft | 398 kts | 106° |
| 2026-05-05 17:10 | 43.88962 | 2.21432 | 17984 ft | 400 kts | 106° |
| 2026-05-05 17:10 | 43.88328 | 2.25192 | 18497 ft | 402 kts | 106° |
| 2026-05-05 17:10 | 43.87690 | 2.28978 | 18887 ft | 406 kts | 106° |
| 2026-05-05 17:11 | 43.87044 | 2.32808 | 19245 ft | 409 kts | 106° |
| 2026-05-05 17:11 | 43.86396 | 2.36653 | 19612 ft | 412 kts | 107° |
| 2026-05-05 17:11 | 43.85738 | 2.40543 | 19983 ft | 414 kts | 107° |
| 2026-05-05 17:11 | 43.85071 | 2.44485 | 20336 ft | 417 kts | 107° |
| 2026-05-05 17:12 | 43.84394 | 2.48474 | 20701 ft | 420 kts | 107° |
| 2026-05-05 17:12 | 43.83726 | 2.52402 | 21034 ft | 422 kts | 107° |
| 2026-05-05 17:12 | 43.83046 | 2.56390 | 21374 ft | 425 kts | 107° |
| 2026-05-05 17:12 | 43.82368 | 2.60376 | 21713 ft | 428 kts | 107° |
| 2026-05-05 17:13 | 43.81686 | 2.64351 | 22034 ft | 430 kts | 107° |
| 2026-05-05 17:13 | 43.80986 | 2.68392 | 22350 ft | 433 kts | 108° |
| 2026-05-05 17:13 | 43.80279 | 2.72458 | 22671 ft | 436 kts | 108° |
| 2026-05-05 17:13 | 43.79566 | 2.76557 | 22984 ft | 438 kts | 108° |
| 2026-05-05 17:14 | 43.78847 | 2.80669 | 23274 ft | 441 kts | 108° |
| 2026-05-05 17:14 | 43.78126 | 2.84798 | 23593 ft | 443 kts | 108° |
| 2026-05-05 17:14 | 43.77406 | 2.88941 | 23886 ft | 445 kts | 108° |
| 2026-05-05 17:14 | 43.76678 | 2.93112 | 24191 ft | 446 kts | 108° |
| 2026-05-05 17:15 | 43.75946 | 2.97285 | 24475 ft | 447 kts | 108° |
| 2026-05-05 17:15 | 43.75205 | 3.01483 | 24738 ft | 450 kts | 108° |
| 2026-05-05 17:15 | 43.74472 | 3.05626 | 25036 ft | 451 kts | 108° |
| 2026-05-05 17:15 | 43.73724 | 3.09849 | 25311 ft | 453 kts | 108° |
| 2026-05-05 17:16 | 43.72977 | 3.14068 | 25601 ft | 454 kts | 108° |
| 2026-05-05 17:16 | 43.72220 | 3.18334 | 25920 ft | 456 kts | 108° |
| 2026-05-05 17:16 | 43.71460 | 3.22602 | 26233 ft | 458 kts | 109° |
| 2026-05-05 17:16 | 43.70696 | 3.26878 | 26559 ft | 460 kts | 109° |
| 2026-05-05 17:17 | 43.69928 | 3.31169 | 26889 ft | 462 kts | 109° |
| 2026-05-05 17:17 | 43.69156 | 3.35471 | 27222 ft | 464 kts | 109° |
| 2026-05-05 17:17 | 43.68386 | 3.39744 | 27595 ft | 466 kts | 109° |
| 2026-05-05 17:17 | 43.67588 | 3.44173 | 27956 ft | 468 kts | 109° |
| 2026-05-05 17:18 | 43.66800 | 3.48536 | 28317 ft | 471 kts | 109° |
| 2026-05-05 17:18 | 43.65999 | 3.52960 | 28673 ft | 473 kts | 109° |
| 2026-05-05 17:18 | 43.65201 | 3.57351 | 29011 ft | 476 kts | 109° |
| 2026-05-05 17:18 | 43.64390 | 3.61811 | 29359 ft | 479 kts | 109° |
| 2026-05-05 17:19 | 43.63574 | 3.66285 | 29708 ft | 482 kts | 109° |
| 2026-05-05 17:19 | 43.62759 | 3.70744 | 30040 ft | 485 kts | 109° |
| 2026-05-05 17:19 | 43.61920 | 3.75325 | 30325 ft | 489 kts | 109° |
| 2026-05-05 17:19 | 43.61094 | 3.79817 | 30572 ft | 492 kts | 109° |
| 2026-05-05 17:20 | 43.60252 | 3.84389 | 30839 ft | 495 kts | 109° |
| 2026-05-05 17:20 | 43.59398 | 3.89012 | 31137 ft | 498 kts | 109° |
| 2026-05-05 17:20 | 43.58367 | 3.93561 | 31373 ft | 496 kts | 116° |
| 2026-05-05 17:20 | 43.56909 | 3.97879 | 31607 ft | 492 kts | 125° |
| 2026-05-05 17:21 | 43.55029 | 4.01774 | 31862 ft | 487 kts | 134° |
| 2026-05-05 17:21 | 43.52877 | 4.05387 | 32114 ft | 487 kts | 136° |
| 2026-05-05 17:21 | 43.50676 | 4.08855 | 32361 ft | 489 kts | 138° |
| 2026-05-05 17:22 | 43.46096 | 4.15815 | 33029 ft | 489 kts | 139° |
| 2026-05-05 17:22 | 43.43808 | 4.19283 | 33404 ft | 489 kts | 139° |
| 2026-05-05 17:22 | 43.41546 | 4.22729 | 33776 ft | 489 kts | 139° |
| 2026-05-05 17:22 | 43.39259 | 4.26230 | 34092 ft | 489 kts | 139° |
| 2026-05-05 17:23 | 43.36989 | 4.29715 | 34375 ft | 490 kts | 139° |
| 2026-05-05 17:23 | 43.34718 | 4.33207 | 34631 ft | 491 kts | 139° |
| 2026-05-05 17:23 | 43.32472 | 4.36658 | 34886 ft | 492 kts | 139° |
| 2026-05-05 17:23 | 43.30157 | 4.40213 | 35145 ft | 492 kts | 139° |
| 2026-05-05 17:24 | 43.27867 | 4.43725 | 35408 ft | 493 kts | 139° |
| 2026-05-05 17:24 | 43.25585 | 4.47219 | 35673 ft | 494 kts | 139° |
| 2026-05-05 17:24 | 43.23300 | 4.50713 | 35932 ft | 495 kts | 139° |
| 2026-05-05 17:24 | 43.20984 | 4.54249 | 36188 ft | 496 kts | 139° |
| 2026-05-05 17:25 | 43.18675 | 4.57769 | 36448 ft | 497 kts | 139° |
| 2026-05-05 17:25 | 43.17151 | 4.60090 | 36620 ft | 497 kts | 139° |
| 2026-05-05 17:25 | 43.14054 | 4.64802 | 36981 ft | 498 kts | 139° |
| 2026-05-05 17:25 | 43.11725 | 4.68341 | 37246 ft | 499 kts | 139° |
| 2026-05-05 17:26 | 43.09402 | 4.71865 | 37521 ft | 499 kts | 139° |
| 2026-05-05 17:26 | 43.07079 | 4.75387 | 37763 ft | 500 kts | 139° |
| 2026-05-05 17:26 | 43.04740 | 4.78926 | 38021 ft | 500 kts | 138° |
| 2026-05-05 17:26 | 43.02407 | 4.82453 | 38272 ft | 501 kts | 138° |
| 2026-05-05 17:27 | 43.00073 | 4.85978 | 38513 ft | 502 kts | 138° |
| 2026-05-05 17:27 | 42.97759 | 4.89467 | 38706 ft | 502 kts | 138° |
| 2026-05-05 17:27 | 42.95406 | 4.93011 | 38865 ft | 503 kts | 138° |
| 2026-05-05 17:28 | 42.90700 | 5.00089 | 38902 ft | 502 kts | 138° |
| 2026-05-05 17:28 | 42.86175 | 5.07374 | 38900 ft | 507 kts | 133° |
| 2026-05-05 17:29 | 42.81946 | 5.15073 | 38895 ft | 508 kts | 132° |
| 2026-05-05 17:29 | 42.77761 | 5.22843 | 38897 ft | 508 kts | 132° |
| 2026-05-05 17:30 | 42.73611 | 5.30524 | 38897 ft | 508 kts | 132° |
| 2026-05-05 17:30 | 42.69409 | 5.38252 | 38899 ft | 508 kts | 132° |
| 2026-05-05 17:31 | 42.65195 | 5.45970 | 38897 ft | 508 kts | 133° |
| 2026-05-05 17:31 | 42.60977 | 5.53672 | 38901 ft | 508 kts | 133° |
| 2026-05-05 17:32 | 42.56765 | 5.61346 | 38905 ft | 508 kts | 133° |
| 2026-05-05 17:32 | 42.52566 | 5.68977 | 38899 ft | 508 kts | 133° |
| 2026-05-05 17:33 | 42.48346 | 5.76627 | 38893 ft | 507 kts | 133° |
| 2026-05-05 17:33 | 42.44107 | 5.84292 | 38893 ft | 508 kts | 133° |
| 2026-05-05 17:34 | 42.39871 | 5.91932 | 38902 ft | 508 kts | 133° |
| 2026-05-05 17:34 | 42.35628 | 5.99565 | 38901 ft | 508 kts | 133° |
| 2026-05-05 17:35 | 42.31413 | 6.07127 | 38905 ft | 507 kts | 133° |
| 2026-05-05 17:35 | 42.27163 | 6.14734 | 38908 ft | 507 kts | 133° |
| 2026-05-05 17:36 | 42.22908 | 6.22331 | 38907 ft | 507 kts | 134° |
| 2026-05-05 17:36 | 42.18650 | 6.29914 | 38909 ft | 506 kts | 134° |
| 2026-05-05 17:37 | 42.14402 | 6.37461 | 38915 ft | 506 kts | 134° |
| 2026-05-05 17:37 | 42.10872 | 6.43739 | 38914 ft | 506 kts | 133° |
| 2026-05-05 17:38 | 42.06737 | 6.51426 | 38914 ft | 507 kts | 132° |
| 2026-05-05 17:38 | 42.02645 | 6.59168 | 38914 ft | 507 kts | 132° |
| 2026-05-05 17:39 | 41.98544 | 6.66860 | 38918 ft | 506 kts | 132° |
| 2026-05-05 17:39 | 41.94419 | 6.74527 | 38921 ft | 506 kts | 133° |
| 2026-05-05 17:40 | 41.90286 | 6.82172 | 38920 ft | 506 kts | 133° |
| 2026-05-05 17:40 | 41.86150 | 6.89804 | 38924 ft | 506 kts | 133° |
| 2026-05-05 17:41 | 41.82032 | 6.97385 | 38926 ft | 506 kts | 133° |
| 2026-05-05 17:41 | 41.77880 | 7.05011 | 38930 ft | 506 kts | 133° |
| 2026-05-05 17:42 | 41.73731 | 7.12614 | 38929 ft | 506 kts | 133° |
| 2026-05-05 17:42 | 41.69569 | 7.20222 | 38933 ft | 507 kts | 133° |
| 2026-05-05 17:43 | 41.65396 | 7.27830 | 38930 ft | 507 kts | 133° |
| 2026-05-05 17:43 | 41.61225 | 7.35417 | 38933 ft | 507 kts | 133° |
| 2026-05-05 17:44 | 41.57037 | 7.43014 | 38937 ft | 507 kts | 133° |
| 2026-05-05 17:44 | 41.52850 | 7.50592 | 38938 ft | 507 kts | 133° |
| 2026-05-05 17:45 | 41.48651 | 7.58172 | 38940 ft | 507 kts | 133° |
| 2026-05-05 17:45 | 41.44472 | 7.65732 | 38945 ft | 506 kts | 133° |
| 2026-05-05 17:46 | 41.40314 | 7.73265 | 38949 ft | 504 kts | 133° |
| 2026-05-05 17:46 | 41.36163 | 7.80729 | 38948 ft | 504 kts | 133° |
| 2026-05-05 17:47 | 41.31981 | 7.88205 | 38952 ft | 504 kts | 133° |
| 2026-05-05 17:47 | 41.27789 | 7.95678 | 38952 ft | 504 kts | 133° |
| 2026-05-05 17:48 | 41.23583 | 8.03156 | 38956 ft | 504 kts | 133° |
| 2026-05-05 17:48 | 41.19408 | 8.10564 | 38953 ft | 504 kts | 133° |
| 2026-05-05 17:49 | 41.14617 | 8.17235 | 38955 ft | 489 kts | 149° |
| 2026-05-05 17:49 | 41.09280 | 8.22915 | 38961 ft | 496 kts | 142° |
| 2026-05-05 17:50 | 41.05105 | 8.30288 | 38953 ft | 510 kts | 127° |
| 2026-05-05 17:50 | 41.01460 | 8.38011 | 38972 ft | 510 kts | 127° |
| 2026-05-05 17:51 | 40.97762 | 8.46098 | 38965 ft | 511 kts | 127° |
| 2026-05-05 17:51 | 40.94091 | 8.54065 | 38963 ft | 510 kts | 127° |
| 2026-05-05 17:52 | 40.90366 | 8.62054 | 38965 ft | 510 kts | 127° |
| 2026-05-05 17:52 | 40.86654 | 8.69965 | 38969 ft | 510 kts | 127° |
| 2026-05-05 17:53 | 40.82904 | 8.77934 | 38969 ft | 510 kts | 127° |
| 2026-05-05 17:53 | 40.79162 | 8.85870 | 38969 ft | 510 kts | 127° |
| 2026-05-05 17:54 | 40.75406 | 8.93816 | 38975 ft | 510 kts | 127° |
| 2026-05-05 17:54 | 40.71655 | 9.01731 | 38979 ft | 510 kts | 127° |
| 2026-05-05 17:55 | 40.67910 | 9.09616 | 38983 ft | 511 kts | 127° |
| 2026-05-05 17:55 | 40.64128 | 9.17554 | 38980 ft | 512 kts | 127° |
| 2026-05-05 17:56 | 40.60345 | 9.25479 | 38978 ft | 512 kts | 127° |
| 2026-05-05 17:56 | 40.56552 | 9.33402 | 38982 ft | 512 kts | 127° |
| 2026-05-05 17:57 | 40.52750 | 9.41325 | 38982 ft | 512 kts | 127° |
| 2026-05-05 17:57 | 40.48943 | 9.49238 | 38983 ft | 511 kts | 127° |
| 2026-05-05 17:58 | 40.45143 | 9.57113 | 38983 ft | 511 kts | 127° |
| 2026-05-05 17:58 | 40.41324 | 9.65009 | 38982 ft | 511 kts | 127° |
| 2026-05-05 17:59 | 40.37541 | 9.72813 | 38981 ft | 510 kts | 127° |
| 2026-05-05 17:59 | 40.33731 | 9.80654 | 38979 ft | 510 kts | 127° |
| 2026-05-05 18:00 | 40.29915 | 9.88485 | 38984 ft | 509 kts | 127° |
| 2026-05-05 18:00 | 40.26100 | 9.96295 | 38996 ft | 509 kts | 127° |
| 2026-05-05 18:01 | 40.22283 | 10.04088 | 38994 ft | 508 kts | 127° |
| 2026-05-05 18:01 | 40.18469 | 10.11856 | 38993 ft | 508 kts | 127° |
| 2026-05-05 18:02 | 40.14673 | 10.19569 | 38995 ft | 508 kts | 127° |
| 2026-05-05 18:02 | 40.10823 | 10.27370 | 39001 ft | 508 kts | 127° |
| 2026-05-05 18:03 | 40.07016 | 10.35067 | 38995 ft | 508 kts | 127° |
| 2026-05-05 18:03 | 40.03174 | 10.42816 | 39006 ft | 508 kts | 127° |
| 2026-05-05 18:04 | 39.99334 | 10.50541 | 39003 ft | 508 kts | 127° |
| 2026-05-05 18:04 | 39.95484 | 10.58268 | 39004 ft | 508 kts | 127° |
| 2026-05-05 18:05 | 39.91628 | 10.65988 | 39011 ft | 507 kts | 127° |
| 2026-05-05 18:05 | 39.87806 | 10.73622 | 39011 ft | 506 kts | 127° |
| 2026-05-05 18:06 | 39.83960 | 10.81285 | 39011 ft | 505 kts | 127° |
| 2026-05-05 18:06 | 39.80118 | 10.88920 | 39015 ft | 504 kts | 127° |
| 2026-05-05 18:07 | 39.76272 | 10.96544 | 39021 ft | 504 kts | 127° |
| 2026-05-05 18:07 | 39.72452 | 11.04098 | 39016 ft | 504 kts | 127° |
| 2026-05-05 18:08 | 39.68600 | 11.11698 | 39017 ft | 503 kts | 127° |
| 2026-05-05 18:08 | 39.64755 | 11.19268 | 39021 ft | 504 kts | 127° |
| 2026-05-05 18:09 | 39.60880 | 11.26877 | 39024 ft | 504 kts | 127° |
| 2026-05-05 18:09 | 39.57021 | 11.34435 | 39026 ft | 504 kts | 127° |
| 2026-05-05 18:10 | 39.53148 | 11.42004 | 39030 ft | 504 kts | 127° |
| 2026-05-05 18:10 | 39.49275 | 11.49554 | 39029 ft | 504 kts | 127° |
| 2026-05-05 18:11 | 39.45389 | 11.57113 | 39031 ft | 504 kts | 127° |
| 2026-05-05 18:11 | 39.41507 | 11.64645 | 39029 ft | 504 kts | 127° |
| 2026-05-05 18:12 | 39.37606 | 11.72198 | 39031 ft | 504 kts | 127° |
| 2026-05-05 18:12 | 39.33734 | 11.79675 | 39034 ft | 504 kts | 127° |
| 2026-05-05 18:13 | 39.29831 | 11.87195 | 39034 ft | 505 kts | 127° |
| 2026-05-05 18:13 | 39.25890 | 11.94770 | 39035 ft | 505 kts | 127° |
| 2026-05-05 18:14 | 39.21960 | 12.02306 | 39037 ft | 505 kts | 127° |
| 2026-05-05 18:14 | 39.18037 | 12.09812 | 39037 ft | 506 kts | 127° |
| 2026-05-05 18:15 | 39.14097 | 12.17331 | 39035 ft | 506 kts | 127° |
| 2026-05-05 18:15 | 39.10183 | 12.24784 | 39038 ft | 506 kts | 127° |
| 2026-05-05 18:16 | 39.06213 | 12.32326 | 39035 ft | 507 kts | 127° |
| 2026-05-05 18:16 | 39.02250 | 12.39838 | 39034 ft | 507 kts | 127° |
| 2026-05-05 18:17 | 38.98305 | 12.47297 | 39037 ft | 507 kts | 127° |
| 2026-05-05 18:17 | 38.94313 | 12.54829 | 39036 ft | 507 kts | 127° |
| 2026-05-05 18:18 | 38.90359 | 12.62270 | 39035 ft | 507 kts | 127° |
| 2026-05-05 18:18 | 38.86380 | 12.69742 | 39034 ft | 507 kts | 127° |
| 2026-05-05 18:19 | 38.82391 | 12.77215 | 39036 ft | 507 kts | 127° |
| 2026-05-05 18:19 | 38.78398 | 12.84680 | 39041 ft | 507 kts | 127° |
| 2026-05-05 18:20 | 38.74410 | 12.92117 | 39040 ft | 506 kts | 127° |
| 2026-05-05 18:20 | 38.70423 | 12.99535 | 39039 ft | 506 kts | 127° |
| 2026-05-05 18:21 | 38.66423 | 13.06960 | 39035 ft | 506 kts | 127° |
| 2026-05-05 18:21 | 38.62426 | 13.14361 | 39034 ft | 506 kts | 127° |
| 2026-05-05 18:22 | 38.58426 | 13.21753 | 39033 ft | 506 kts | 127° |
| 2026-05-05 18:22 | 38.54411 | 13.29154 | 39033 ft | 506 kts | 127° |
| 2026-05-05 18:23 | 38.50376 | 13.36577 | 39036 ft | 506 kts | 127° |
| 2026-05-05 18:23 | 38.46351 | 13.43964 | 39034 ft | 506 kts | 127° |
| 2026-05-05 18:24 | 38.42332 | 13.51324 | 39036 ft | 506 kts | 127° |
| 2026-05-05 18:24 | 38.38301 | 13.58688 | 39033 ft | 506 kts | 127° |
| 2026-05-05 18:25 | 38.34267 | 13.66040 | 39041 ft | 506 kts | 127° |
| 2026-05-05 18:25 | 38.30227 | 13.73389 | 39037 ft | 506 kts | 128° |
| 2026-05-05 18:26 | 38.26183 | 13.80727 | 39039 ft | 506 kts | 128° |
| 2026-05-05 18:26 | 38.22163 | 13.88005 | 39040 ft | 506 kts | 128° |
| 2026-05-05 18:27 | 38.18108 | 13.95331 | 39046 ft | 507 kts | 128° |
| 2026-05-05 18:27 | 38.14052 | 14.02640 | 39046 ft | 507 kts | 128° |
| 2026-05-05 18:28 | 38.07967 | 14.13579 | 39049 ft | 508 kts | 128° |
| 2026-05-05 18:28 | 38.03862 | 14.20938 | 39053 ft | 508 kts | 128° |
| 2026-05-05 18:29 | 37.99780 | 14.28238 | 39061 ft | 508 kts | 128° |
| 2026-05-05 18:29 | 37.95687 | 14.35543 | 39059 ft | 509 kts | 128° |
| 2026-05-05 18:30 | 37.91582 | 14.42850 | 39065 ft | 509 kts | 128° |
| 2026-05-05 18:30 | 37.87473 | 14.50151 | 39061 ft | 509 kts | 128° |
| 2026-05-05 18:31 | 37.83381 | 14.57404 | 39069 ft | 510 kts | 128° |
| 2026-05-05 18:31 | 37.79256 | 14.64703 | 39067 ft | 510 kts | 128° |
| 2026-05-05 18:32 | 37.75796 | 14.70812 | 39069 ft | 510 kts | 128° |
| 2026-05-05 18:32 | 37.71950 | 14.77586 | 39063 ft | 510 kts | 128° |
| 2026-05-05 18:33 | 37.67833 | 14.84824 | 39067 ft | 510 kts | 128° |
| 2026-05-05 18:33 | 37.63665 | 14.92137 | 39072 ft | 510 kts | 128° |
| 2026-05-05 18:34 | 37.59526 | 14.99383 | 39070 ft | 511 kts | 128° |
| 2026-05-05 18:34 | 37.55381 | 15.06621 | 39073 ft | 511 kts | 128° |
| 2026-05-05 18:35 | 37.51197 | 15.13913 | 39073 ft | 511 kts | 128° |
| 2026-05-05 18:35 | 37.47027 | 15.21166 | 39072 ft | 511 kts | 128° |
| 2026-05-05 18:36 | 37.42855 | 15.28404 | 39069 ft | 511 kts | 128° |
| 2026-05-05 18:36 | 37.38714 | 15.35573 | 39072 ft | 511 kts | 128° |
| 2026-05-05 18:37 | 37.34524 | 15.42813 | 39067 ft | 512 kts | 128° |
| 2026-05-05 18:37 | 37.30337 | 15.50032 | 39072 ft | 512 kts | 128° |
| 2026-05-05 18:38 | 37.26142 | 15.57249 | 39078 ft | 512 kts | 128° |
| 2026-05-05 18:38 | 37.21928 | 15.64482 | 39081 ft | 513 kts | 128° |
| 2026-05-05 18:39 | 37.17707 | 15.71712 | 39076 ft | 513 kts | 128° |
| 2026-05-05 18:39 | 37.13516 | 15.78876 | 39087 ft | 514 kts | 128° |
| 2026-05-05 18:40 | 37.09283 | 15.86096 | 39084 ft | 514 kts | 128° |
| 2026-05-05 18:40 | 37.05040 | 15.93315 | 39093 ft | 515 kts | 128° |
| 2026-05-05 18:41 | 37.00815 | 16.00489 | 39089 ft | 516 kts | 128° |
| 2026-05-05 18:41 | 36.96558 | 16.07704 | 39091 ft | 516 kts | 128° |
| 2026-05-05 18:42 | 36.92281 | 16.14934 | 39088 ft | 517 kts | 129° |
| 2026-05-05 18:42 | 36.88003 | 16.22149 | 39087 ft | 517 kts | 129° |
| 2026-05-05 18:43 | 36.83719 | 16.29364 | 39089 ft | 518 kts | 129° |
| 2026-05-05 18:43 | 36.79418 | 16.36593 | 39096 ft | 518 kts | 129° |
| 2026-05-05 18:44 | 36.75145 | 16.43754 | 39105 ft | 519 kts | 129° |
| 2026-05-05 18:44 | 36.70824 | 16.50981 | 39105 ft | 519 kts | 129° |
| 2026-05-05 18:45 | 36.66503 | 16.58193 | 39102 ft | 520 kts | 129° |
| 2026-05-05 18:45 | 36.62182 | 16.65392 | 39104 ft | 520 kts | 129° |
| 2026-05-05 18:46 | 36.57849 | 16.72598 | 39108 ft | 520 kts | 129° |
| 2026-05-05 18:46 | 36.53529 | 16.79767 | 39106 ft | 521 kts | 129° |
| 2026-05-05 18:47 | 36.49679 | 16.87391 | 39293 ft | 525 kts | 114° |
| 2026-05-05 18:47 | 36.48331 | 16.91608 | 39542 ft | 524 kts | 111° |
| 2026-05-05 18:47 | 36.47098 | 16.95864 | 39778 ft | 524 kts | 110° |
| 2026-05-05 18:48 | 36.45914 | 17.00154 | 39990 ft | 524 kts | 109° |
| 2026-05-05 18:48 | 36.44755 | 17.04440 | 40195 ft | 524 kts | 109° |
| 2026-05-05 18:48 | 36.43596 | 17.08737 | 40390 ft | 524 kts | 109° |
| 2026-05-05 18:48 | 36.42447 | 17.12975 | 40594 ft | 524 kts | 109° |
| 2026-05-05 18:49 | 36.41274 | 17.17271 | 40789 ft | 525 kts | 109° |
| 2026-05-05 18:49 | 36.40099 | 17.21542 | 40976 ft | 525 kts | 109° |
| 2026-05-05 18:49 | 36.38912 | 17.25838 | 41100 ft | 526 kts | 109° |
| 2026-05-05 18:49 | 36.37722 | 17.30129 | 41110 ft | 527 kts | 109° |
| 2026-05-05 18:50 | 36.35334 | 17.38711 | 41124 ft | 526 kts | 109° |
| 2026-05-05 18:50 | 36.32940 | 17.47294 | 41114 ft | 526 kts | 109° |
| 2026-05-05 18:51 | 36.30545 | 17.55855 | 41120 ft | 527 kts | 109° |
| 2026-05-05 18:51 | 36.28139 | 17.64431 | 41121 ft | 527 kts | 109° |
| 2026-05-05 18:52 | 36.25721 | 17.73019 | 41123 ft | 527 kts | 109° |
| 2026-05-05 18:52 | 36.23303 | 17.81584 | 41121 ft | 527 kts | 109° |
| 2026-05-05 18:53 | 36.20890 | 17.90100 | 41132 ft | 527 kts | 109° |
| 2026-05-05 18:53 | 36.18456 | 17.98666 | 41133 ft | 528 kts | 109° |
| 2026-05-05 18:54 | 36.16015 | 18.07232 | 41131 ft | 528 kts | 109° |
| 2026-05-05 18:54 | 36.13566 | 18.15797 | 41128 ft | 528 kts | 109° |
| 2026-05-05 18:55 | 36.11110 | 18.24359 | 41131 ft | 528 kts | 109° |
| 2026-05-05 18:55 | 36.08663 | 18.32863 | 41134 ft | 528 kts | 110° |
| 2026-05-05 18:56 | 36.06194 | 18.41420 | 41134 ft | 529 kts | 110° |
| 2026-05-05 18:56 | 36.03716 | 18.49978 | 41133 ft | 529 kts | 110° |
| 2026-05-05 18:57 | 36.01235 | 18.58521 | 41135 ft | 529 kts | 110° |
| 2026-05-05 18:57 | 35.98744 | 18.67072 | 41136 ft | 529 kts | 110° |
| 2026-05-05 18:58 | 35.96243 | 18.75634 | 41140 ft | 530 kts | 110° |
| 2026-05-05 18:58 | 35.93740 | 18.84174 | 41140 ft | 530 kts | 110° |
| 2026-05-05 18:59 | 35.91243 | 18.92670 | 41147 ft | 530 kts | 110° |
| 2026-05-05 18:59 | 35.88722 | 19.01219 | 41146 ft | 530 kts | 110° |
| 2026-05-05 19:00 | 35.86194 | 19.09766 | 41145 ft | 531 kts | 110° |
| 2026-05-05 19:00 | 35.83662 | 19.18310 | 41142 ft | 531 kts | 110° |
| 2026-05-05 19:01 | 35.81124 | 19.26843 | 41141 ft | 531 kts | 110° |
| 2026-05-05 19:01 | 35.78590 | 19.35336 | 41150 ft | 531 kts | 110° |
| 2026-05-05 19:02 | 35.76034 | 19.43881 | 41151 ft | 532 kts | 110° |
| 2026-05-05 19:02 | 35.73477 | 19.52404 | 41144 ft | 531 kts | 110° |
| 2026-05-05 19:03 | 35.70910 | 19.60933 | 41148 ft | 532 kts | 110° |
| 2026-05-05 19:03 | 35.68336 | 19.69460 | 41147 ft | 532 kts | 110° |
| 2026-05-05 19:04 | 35.65756 | 19.77982 | 41149 ft | 532 kts | 110° |
| 2026-05-05 19:04 | 35.63190 | 19.86433 | 41148 ft | 532 kts | 110° |
| 2026-05-05 19:05 | 35.60597 | 19.94945 | 41148 ft | 532 kts | 110° |
| 2026-05-05 19:05 | 35.57998 | 20.03454 | 41149 ft | 532 kts | 110° |
| 2026-05-05 19:06 | 35.55390 | 20.11969 | 41151 ft | 532 kts | 110° |
| 2026-05-05 19:06 | 35.52777 | 20.20471 | 41147 ft | 532 kts | 110° |
| 2026-05-05 19:07 | 35.50176 | 20.28912 | 41153 ft | 532 kts | 110° |
| 2026-05-05 19:07 | 35.47536 | 20.37455 | 41155 ft | 533 kts | 110° |
| 2026-05-05 19:08 | 35.44906 | 20.45939 | 41153 ft | 533 kts | 110° |
| 2026-05-05 19:08 | 35.42261 | 20.54447 | 41147 ft | 533 kts | 110° |
| 2026-05-05 19:09 | 35.39634 | 20.62876 | 41148 ft | 533 kts | 110° |
| 2026-05-05 19:09 | 35.36979 | 20.71367 | 41151 ft | 534 kts | 110° |
| 2026-05-05 19:10 | 35.34316 | 20.79857 | 41146 ft | 534 kts | 110° |
| 2026-05-05 19:10 | 35.31647 | 20.88347 | 41144 ft | 534 kts | 111° |
| 2026-05-05 19:11 | 35.28976 | 20.96815 | 41145 ft | 534 kts | 111° |
| 2026-05-05 19:11 | 35.26291 | 21.05302 | 41147 ft | 535 kts | 111° |
| 2026-05-05 19:12 | 35.23600 | 21.13788 | 41146 ft | 535 kts | 111° |
| 2026-05-05 19:12 | 35.20897 | 21.22284 | 41148 ft | 535 kts | 111° |
| 2026-05-05 19:13 | 35.18194 | 21.30757 | 41143 ft | 535 kts | 111° |
| 2026-05-05 19:13 | 35.15479 | 21.39243 | 41147 ft | 535 kts | 111° |
| 2026-05-05 19:14 | 35.12763 | 21.47709 | 41147 ft | 536 kts | 111° |
| 2026-05-05 19:14 | 35.10039 | 21.56173 | 41142 ft | 536 kts | 111° |
| 2026-05-05 19:15 | 35.07308 | 21.64638 | 41141 ft | 536 kts | 111° |
| 2026-05-05 19:15 | 35.04573 | 21.73092 | 41141 ft | 536 kts | 111° |
| 2026-05-05 19:16 | 35.01831 | 21.81554 | 41143 ft | 536 kts | 111° |
| 2026-05-05 19:16 | 34.99070 | 21.90014 | 41142 ft | 536 kts | 111° |
| 2026-05-05 19:17 | 34.96298 | 21.98468 | 41142 ft | 536 kts | 111° |
| 2026-05-05 19:17 | 34.93524 | 22.06914 | 41137 ft | 537 kts | 111° |
| 2026-05-05 19:18 | 34.90770 | 22.15282 | 41140 ft | 537 kts | 111° |
| 2026-05-05 19:18 | 34.87981 | 22.23734 | 41146 ft | 537 kts | 111° |
| 2026-05-05 19:19 | 34.85191 | 22.32167 | 41141 ft | 537 kts | 111° |
| 2026-05-05 19:19 | 34.82393 | 22.40600 | 41139 ft | 537 kts | 111° |
| 2026-05-05 19:20 | 34.79607 | 22.48972 | 41142 ft | 537 kts | 111° |
| 2026-05-05 19:20 | 34.76797 | 22.57394 | 41137 ft | 537 kts | 111° |
| 2026-05-05 19:21 | 34.73980 | 22.65815 | 41136 ft | 538 kts | 111° |
| 2026-05-05 19:21 | 34.71158 | 22.74227 | 41139 ft | 538 kts | 112° |
| 2026-05-05 19:22 | 34.68328 | 22.82640 | 41138 ft | 538 kts | 112° |
| 2026-05-05 19:22 | 34.65511 | 22.90994 | 41135 ft | 538 kts | 112° |
| 2026-05-05 19:23 | 34.62665 | 22.99408 | 41136 ft | 538 kts | 112° |
| 2026-05-05 19:23 | 34.59572 | 23.07664 | 41134 ft | 539 kts | 116° |
| 2026-05-05 19:24 | 34.56078 | 23.15710 | 41136 ft | 539 kts | 117° |
| 2026-05-05 19:24 | 34.52558 | 23.23747 | 41133 ft | 539 kts | 117° |
| 2026-05-05 19:25 | 34.49091 | 23.31807 | 41132 ft | 539 kts | 117° |
| 2026-05-05 19:25 | 34.45652 | 23.39867 | 41131 ft | 539 kts | 116° |
| 2026-05-05 19:26 | 34.42229 | 23.47883 | 41134 ft | 539 kts | 116° |
| 2026-05-05 19:26 | 34.38778 | 23.55941 | 41129 ft | 539 kts | 117° |
| 2026-05-05 19:27 | 34.35319 | 23.63992 | 41128 ft | 539 kts | 117° |
| 2026-05-05 19:27 | 34.31859 | 23.72026 | 41127 ft | 539 kts | 117° |
| 2026-05-05 19:28 | 34.28386 | 23.80071 | 41127 ft | 539 kts | 117° |
| 2026-05-05 19:28 | 34.24913 | 23.88097 | 41127 ft | 539 kts | 117° |
| 2026-05-05 19:29 | 34.21431 | 23.96127 | 41127 ft | 539 kts | 117° |
| 2026-05-05 19:29 | 34.17973 | 24.04083 | 41127 ft | 539 kts | 117° |
| 2026-05-05 19:30 | 34.14487 | 24.12084 | 41126 ft | 539 kts | 117° |
| 2026-05-05 19:30 | 34.10997 | 24.20075 | 41125 ft | 538 kts | 117° |
| 2026-05-05 19:31 | 34.07496 | 24.28075 | 41122 ft | 538 kts | 117° |
| 2026-05-05 19:31 | 34.03999 | 24.36045 | 41128 ft | 538 kts | 117° |
| 2026-05-05 19:32 | 34.00304 | 24.43812 | 41119 ft | 538 kts | 127° |
| 2026-05-05 19:32 | 33.95209 | 24.50340 | 41125 ft | 535 kts | 138° |
| 2026-05-05 19:33 | 33.89672 | 24.56344 | 41125 ft | 535 kts | 140° |
| 2026-05-05 19:33 | 33.84079 | 24.62263 | 41120 ft | 535 kts | 140° |
| 2026-05-05 19:34 | 33.78520 | 24.68176 | 41123 ft | 535 kts | 140° |
| 2026-05-05 19:35 | 33.70180 | 24.77088 | 41127 ft | 535 kts | 140° |
| 2026-05-05 19:35 | 33.64647 | 24.82997 | 41122 ft | 535 kts | 140° |
| 2026-05-05 19:36 | 33.59099 | 24.88909 | 41122 ft | 534 kts | 140° |
| 2026-05-05 19:36 | 33.53537 | 24.94824 | 41127 ft | 534 kts | 140° |
| 2026-05-05 19:37 | 33.47973 | 25.00730 | 41126 ft | 534 kts | 140° |
| 2026-05-05 19:37 | 33.42402 | 25.06634 | 41124 ft | 534 kts | 140° |
| 2026-05-05 19:38 | 33.36842 | 25.12515 | 41125 ft | 534 kts | 140° |
| 2026-05-05 19:38 | 33.31270 | 25.18398 | 41123 ft | 534 kts | 140° |
| 2026-05-05 19:39 | 33.25714 | 25.24254 | 41124 ft | 533 kts | 140° |
| 2026-05-05 19:39 | 33.20181 | 25.30076 | 41135 ft | 533 kts | 140° |
| 2026-05-05 19:40 | 33.14615 | 25.35922 | 41127 ft | 533 kts | 140° |
| 2026-05-05 19:40 | 33.09045 | 25.41761 | 41139 ft | 533 kts | 140° |
| 2026-05-05 19:41 | 33.03466 | 25.47601 | 41140 ft | 533 kts | 140° |
| 2026-05-05 19:41 | 32.97905 | 25.53411 | 41141 ft | 533 kts | 140° |
| 2026-05-05 19:42 | 32.92360 | 25.59194 | 41134 ft | 533 kts | 140° |
| 2026-05-05 19:42 | 32.86782 | 25.65001 | 41131 ft | 533 kts | 140° |
| 2026-05-05 19:43 | 32.81211 | 25.70792 | 41133 ft | 532 kts | 140° |
| 2026-05-05 19:43 | 32.75628 | 25.76585 | 41133 ft | 532 kts | 140° |
| 2026-05-05 19:44 | 32.70052 | 25.82360 | 41128 ft | 532 kts | 140° |
| 2026-05-05 19:44 | 32.64521 | 25.88079 | 41132 ft | 531 kts | 140° |
| 2026-05-05 19:45 | 32.58948 | 25.93831 | 41131 ft | 531 kts | 141° |
| 2026-05-05 19:45 | 32.53376 | 25.99574 | 41129 ft | 531 kts | 141° |
| 2026-05-05 19:46 | 32.47810 | 26.05299 | 41130 ft | 530 kts | 141° |
| 2026-05-05 19:46 | 32.42275 | 26.10984 | 41134 ft | 530 kts | 141° |
| 2026-05-05 19:47 | 32.36696 | 26.16704 | 41132 ft | 530 kts | 141° |
| 2026-05-05 19:47 | 32.31129 | 26.22402 | 41134 ft | 530 kts | 141° |
| 2026-05-05 19:48 | 32.25549 | 26.28103 | 41133 ft | 530 kts | 141° |
| 2026-05-05 19:48 | 32.19985 | 26.33779 | 41132 ft | 529 kts | 141° |
| 2026-05-05 19:49 | 32.15345 | 26.38504 | 41133 ft | 529 kts | 141° |
| 2026-05-05 19:49 | 32.08857 | 26.45100 | 41136 ft | 529 kts | 141° |
| 2026-05-05 19:50 | 32.03283 | 26.50758 | 41134 ft | 529 kts | 141° |
| 2026-05-05 19:50 | 31.98653 | 26.55449 | 41132 ft | 528 kts | 141° |
| 2026-05-05 19:51 | 31.93084 | 26.61084 | 41138 ft | 528 kts | 141° |
| 2026-05-05 19:51 | 31.87504 | 26.66720 | 41129 ft | 528 kts | 141° |
| 2026-05-05 19:52 | 31.81034 | 26.73243 | 41131 ft | 527 kts | 142° |
| 2026-05-05 19:52 | 31.76401 | 26.77908 | 41127 ft | 527 kts | 142° |
| 2026-05-05 19:53 | 31.70829 | 26.83508 | 41129 ft | 527 kts | 142° |
| 2026-05-05 19:53 | 31.65263 | 26.89094 | 41131 ft | 527 kts | 142° |
| 2026-05-05 19:54 | 31.59682 | 26.94686 | 41132 ft | 526 kts | 142° |
| 2026-05-05 19:54 | 31.54117 | 27.00253 | 41128 ft | 526 kts | 142° |
| 2026-05-05 19:55 | 31.48586 | 27.05776 | 41131 ft | 526 kts | 142° |
| 2026-05-05 19:55 | 31.43008 | 27.11337 | 41130 ft | 527 kts | 142° |
| 2026-05-05 19:56 | 31.37423 | 27.16896 | 41128 ft | 527 kts | 142° |
| 2026-05-05 19:56 | 31.32016 | 27.22706 | 41129 ft | 531 kts | 133° |
| 2026-05-05 19:57 | 31.27578 | 27.29617 | 41130 ft | 533 kts | 127° |
| 2026-05-05 19:57 | 31.23424 | 27.36743 | 41131 ft | 533 kts | 126° |
| 2026-05-05 19:58 | 31.19297 | 27.43939 | 41130 ft | 534 kts | 126° |
| 2026-05-05 19:58 | 31.15148 | 27.51124 | 41129 ft | 534 kts | 126° |
| 2026-05-05 19:59 | 31.10970 | 27.58294 | 41129 ft | 534 kts | 127° |
| 2026-05-05 19:59 | 31.06730 | 27.65389 | 41134 ft | 534 kts | 127° |
| 2026-05-05 20:00 | 31.02491 | 27.72440 | 41130 ft | 534 kts | 127° |
| 2026-05-05 20:00 | 30.98236 | 27.79530 | 41128 ft | 534 kts | 127° |
| 2026-05-05 20:01 | 30.93989 | 27.86611 | 41134 ft | 533 kts | 127° |
| 2026-05-05 20:01 | 30.89738 | 27.93692 | 41133 ft | 533 kts | 128° |
| 2026-05-05 20:02 | 30.85480 | 28.00770 | 41137 ft | 533 kts | 128° |
| 2026-05-05 20:02 | 30.81228 | 28.07825 | 41139 ft | 533 kts | 128° |
| 2026-05-05 20:03 | 30.76997 | 28.14833 | 41136 ft | 533 kts | 128° |
| 2026-05-05 20:03 | 30.72736 | 28.21877 | 41139 ft | 532 kts | 128° |
| 2026-05-05 20:04 | 30.68469 | 28.28919 | 41133 ft | 532 kts | 128° |
| 2026-05-05 20:04 | 30.64203 | 28.35945 | 41135 ft | 532 kts | 128° |
| 2026-05-05 20:05 | 30.59945 | 28.42948 | 41137 ft | 532 kts | 129° |
| 2026-05-05 20:05 | 30.55697 | 28.49921 | 41136 ft | 532 kts | 129° |
| 2026-05-05 20:06 | 30.51428 | 28.56916 | 41137 ft | 532 kts | 129° |
| 2026-05-05 20:06 | 30.47150 | 28.63915 | 41137 ft | 532 kts | 129° |
| 2026-05-05 20:07 | 30.42867 | 28.70909 | 41130 ft | 532 kts | 129° |
| 2026-05-05 20:07 | 30.38588 | 28.77884 | 41125 ft | 532 kts | 129° |
| 2026-05-05 20:08 | 30.34299 | 28.84862 | 41134 ft | 532 kts | 129° |
| 2026-05-05 20:08 | 30.30037 | 28.91786 | 41129 ft | 532 kts | 129° |
| 2026-05-05 20:09 | 30.25745 | 28.98746 | 41125 ft | 532 kts | 129° |
| 2026-05-05 20:09 | 30.21445 | 29.05708 | 41120 ft | 532 kts | 130° |
| 2026-05-05 20:10 | 30.17148 | 29.12663 | 41118 ft | 532 kts | 129° |
| 2026-05-05 20:10 | 30.12852 | 29.19627 | 41119 ft | 532 kts | 130° |
| 2026-05-05 20:11 | 30.08587 | 29.26614 | 41120 ft | 532 kts | 129° |
| 2026-05-05 20:11 | 30.04375 | 29.33624 | 41118 ft | 532 kts | 129° |
| 2026-05-05 20:12 | 30.00155 | 29.40630 | 41122 ft | 531 kts | 129° |
| 2026-05-05 20:12 | 29.95953 | 29.47572 | 41121 ft | 531 kts | 129° |
| 2026-05-05 20:13 | 29.91714 | 29.54553 | 41120 ft | 531 kts | 129° |
| 2026-05-05 20:13 | 29.87470 | 29.61529 | 41121 ft | 531 kts | 130° |
| 2026-05-05 20:14 | 29.83251 | 29.68454 | 41120 ft | 531 kts | 130° |
| 2026-05-05 20:14 | 29.79006 | 29.75410 | 41119 ft | 531 kts | 130° |
| 2026-05-05 20:15 | 29.74750 | 29.82373 | 41120 ft | 531 kts | 130° |
| 2026-05-05 20:15 | 29.70502 | 29.89310 | 41117 ft | 531 kts | 130° |
| 2026-05-05 20:16 | 29.66249 | 29.96245 | 41121 ft | 530 kts | 130° |
| 2026-05-05 20:16 | 29.62022 | 30.03124 | 41123 ft | 530 kts | 130° |
| 2026-05-05 20:16 | 29.59898 | 30.06576 | 41008 ft | 531 kts | 130° |
| 2026-05-05 20:17 | 29.57764 | 30.10043 | 40761 ft | 530 kts | 130° |
| 2026-05-05 20:17 | 29.55641 | 30.13489 | 40527 ft | 529 kts | 130° |
| 2026-05-05 20:17 | 29.53513 | 30.16941 | 40006 ft | 528 kts | 130° |
| 2026-05-05 20:17 | 29.51390 | 30.20379 | 39318 ft | 530 kts | 130° |
| 2026-05-05 20:18 | 29.49251 | 30.23840 | 38594 ft | 531 kts | 130° |
| 2026-05-05 20:18 | 29.47119 | 30.27289 | 37741 ft | 531 kts | 130° |
| 2026-05-05 20:18 | 29.44971 | 30.30760 | 36917 ft | 533 kts | 130° |
| 2026-05-05 20:18 | 29.42861 | 30.34169 | 36212 ft | 532 kts | 129° |
| 2026-05-05 20:19 | 29.40998 | 30.37844 | 35493 ft | 537 kts | 116° |
| 2026-05-05 20:19 | 29.39892 | 30.41946 | 34758 ft | 541 kts | 101° |
| 2026-05-05 20:19 | 29.39488 | 30.46233 | 33884 ft | 544 kts | 93° |
| 2026-05-05 20:19 | 29.39415 | 30.50589 | 32952 ft | 545 kts | 89° |
| 2026-05-05 20:20 | 29.39492 | 30.54924 | 32053 ft | 546 kts | 88° |
| 2026-05-05 20:20 | 29.39617 | 30.59285 | 31131 ft | 547 kts | 88° |
| 2026-05-05 20:20 | 29.39732 | 30.63642 | 30187 ft | 548 kts | 88° |
| 2026-05-05 20:20 | 29.39814 | 30.67966 | 29235 ft | 547 kts | 89° |
| 2026-05-05 20:21 | 29.39863 | 30.72299 | 28497 ft | 542 kts | 89° |
| 2026-05-05 20:21 | 29.39887 | 30.76606 | 27771 ft | 536 kts | 89° |
| 2026-05-05 20:21 | 29.39897 | 30.80851 | 27075 ft | 531 kts | 90° |
| 2026-05-05 20:21 | 29.39899 | 30.85072 | 26395 ft | 526 kts | 90° |
| 2026-05-05 20:22 | 29.39899 | 30.89238 | 25706 ft | 521 kts | 90° |
| 2026-05-05 20:22 | 29.39898 | 30.93368 | 25010 ft | 517 kts | 90° |
| 2026-05-05 20:22 | 29.39897 | 30.97481 | 24333 ft | 512 kts | 90° |
| 2026-05-05 20:22 | 29.39896 | 31.01541 | 23654 ft | 508 kts | 90° |
| 2026-05-05 20:23 | 29.39895 | 31.05530 | 22911 ft | 503 kts | 90° |
| 2026-05-05 20:23 | 29.39893 | 31.09560 | 22225 ft | 497 kts | 90° |
| 2026-05-05 20:23 | 29.39890 | 31.13436 | 21574 ft | 490 kts | 90° |
| 2026-05-05 20:23 | 29.39886 | 31.17328 | 20915 ft | 484 kts | 90° |
| 2026-05-05 20:24 | 29.39882 | 31.21174 | 20254 ft | 479 kts | 90° |
| 2026-05-05 20:24 | 29.40111 | 31.24949 | 19610 ft | 473 kts | 79° |
| 2026-05-05 20:24 | 29.41072 | 31.28528 | 18976 ft | 465 kts | 63° |
| 2026-05-05 20:24 | 29.42799 | 31.31596 | 18327 ft | 455 kts | 45° |
| 2026-05-05 20:25 | 29.45123 | 31.33901 | 17659 ft | 441 kts | 28° |
| 2026-05-05 20:25 | 29.47855 | 31.35293 | 17039 ft | 423 kts | 10° |
| 2026-05-05 20:25 | 29.50710 | 31.35647 | 16479 ft | 404 kts | 352° |
| 2026-05-05 20:25 | 29.53368 | 31.34977 | 15943 ft | 386 kts | 334° |
| 2026-05-05 20:26 | 29.55866 | 31.33894 | 15377 ft | 381 kts | 337° |
| 2026-05-05 20:26 | 29.58438 | 31.33206 | 14826 ft | 382 kts | 348° |
| 2026-05-05 20:26 | 29.61103 | 31.33132 | 14243 ft | 383 kts | 357° |
| 2026-05-05 20:26 | 29.63746 | 31.33332 | 13634 ft | 380 kts | 359° |
| 2026-05-05 20:27 | 29.66369 | 31.33599 | 13030 ft | 375 kts | 0° |
| 2026-05-05 20:27 | 29.68941 | 31.33886 | 12469 ft | 369 kts | 1° |
| 2026-05-05 20:27 | 29.71457 | 31.34179 | 11913 ft | 366 kts | 1° |
| 2026-05-05 20:27 | 29.73990 | 31.34484 | 11584 ft | 355 kts | 1° |
| 2026-05-05 20:28 | 29.76363 | 31.34779 | 11469 ft | 339 kts | 1° |
| 2026-05-05 20:28 | 29.78649 | 31.35064 | 11320 ft | 324 kts | 1° |
| 2026-05-05 20:28 | 29.80831 | 31.35328 | 11208 ft | 310 kts | 1° |
| 2026-05-05 20:28 | 29.82946 | 31.35580 | 11077 ft | 297 kts | 1° |
| 2026-05-05 20:29 | 29.84966 | 31.35823 | 10945 ft | 286 kts | 1° |
| 2026-05-05 20:29 | 29.86903 | 31.36057 | 10818 ft | 276 kts | 1° |
| 2026-05-05 20:29 | 29.88802 | 31.36287 | 10670 ft | 274 kts | 1° |
| 2026-05-05 20:29 | 29.90690 | 31.36514 | 10420 ft | 273 kts | 1° |
| 2026-05-05 20:30 | 29.92573 | 31.36743 | 10146 ft | 272 kts | 1° |
| 2026-05-05 20:30 | 29.94471 | 31.36975 | 9878 ft | 279 kts | 1° |
| 2026-05-05 20:30 | 29.96436 | 31.37212 | 9785 ft | 289 kts | 2° |
| 2026-05-05 20:30 | 29.98405 | 31.37455 | 9528 ft | 287 kts | 2° |
| 2026-05-05 20:31 | 30.00396 | 31.37702 | 9044 ft | 288 kts | 2° |
| 2026-05-05 20:31 | 30.02374 | 31.37948 | 8700 ft | 285 kts | 2° |
| 2026-05-05 20:31 | 30.04337 | 31.38192 | 8409 ft | 284 kts | 2° |
| 2026-05-05 20:31 | 30.06221 | 31.38439 | 8126 ft | 283 kts | 5° |
| 2026-05-05 20:32 | 30.08135 | 31.39138 | 7815 ft | 287 kts | 27° |
| 2026-05-05 20:32 | 30.09585 | 31.40726 | 7481 ft | 290 kts | 56° |
| 2026-05-05 20:32 | 30.10322 | 31.42740 | 7163 ft | 291 kts | 72° |
| 2026-05-05 20:32 | 30.10853 | 31.44978 | 6822 ft | 288 kts | 73° |
| 2026-05-05 20:33 | 30.11371 | 31.47218 | 6479 ft | 286 kts | 73° |
| 2026-05-05 20:33 | 30.11886 | 31.49393 | 6126 ft | 284 kts | 73° |
| 2026-05-05 20:33 | 30.12420 | 31.51618 | 5769 ft | 283 kts | 72° |
| 2026-05-05 20:33 | 30.12941 | 31.53771 | 5381 ft | 281 kts | 72° |
| 2026-05-05 20:34 | 30.13466 | 31.55932 | 5020 ft | 278 kts | 72° |
| 2026-05-05 20:34 | 30.14033 | 31.58048 | 4662 ft | 273 kts | 66° |
| 2026-05-05 20:34 | 30.15046 | 31.59839 | 4384 ft | 266 kts | 41° |
| 2026-05-05 20:34 | 30.16594 | 31.60919 | 4112 ft | 259 kts | 16° |
| 2026-05-05 20:35 | 30.18337 | 31.61126 | 3838 ft | 254 kts | 353° |
| 2026-05-05 20:35 | 30.20004 | 31.60478 | 3605 ft | 247 kts | 328° |
| 2026-05-05 20:35 | 30.21044 | 31.59034 | 3567 ft | 233 kts | 293° |
| 2026-05-05 20:35 | 30.21132 | 31.57265 | 3441 ft | 217 kts | 258° |
| 2026-05-05 20:36 | 30.20379 | 31.55815 | 3205 ft | 208 kts | 229° |
| 2026-05-05 20:36 | 30.19342 | 31.54703 | 2927 ft | 198 kts | 225° |
| 2026-05-05 20:36 | 30.18408 | 31.53597 | 2602 ft | 188 kts | 231° |
| 2026-05-05 20:36 | 30.17612 | 31.52444 | 2305 ft | 179 kts | 236° |
| 2026-05-05 20:37 | 30.16814 | 31.51376 | 1996 ft | 173 kts | 232° |
| 2026-05-05 20:37 | 30.16037 | 31.50355 | 1713 ft | 165 kts | 233° |
| 2026-05-05 20:37 | 30.15326 | 31.49398 | 1477 ft | 155 kts | 233° |
| 2026-05-05 20:37 | 30.14647 | 31.48487 | 1285 ft | 145 kts | 234° |
| 2026-05-05 20:38 | 30.14005 | 31.47626 | 1095 ft | 139 kts | 233° |
| 2026-05-05 20:38 | 30.13388 | 31.46803 | 920 ft | 138 kts | 234° |
| 2026-05-05 20:38 | 30.12758 | 31.45958 | 732 ft | 139 kts | 233° |
| 2026-05-05 20:38 | 30.12126 | 31.45115 | 554 ft | 139 kts | 234° |
| 2026-05-05 20:39 | 30.11497 | 31.44271 | 404 ft | 138 kts | 231° |
| 2026-05-05 20:39 | 30.10922 | 31.43505 | 379 ft | 99 kts | 229° |
| 2026-05-05 20:39 | 30.10627 | 31.43107 | 378 ft | 36 kts | 230° |
| 2026-05-05 20:39 | 30.10519 | 31.42889 | 378 ft | 30 kts | 249° |
| 2026-05-05 20:40 | 30.10461 | 31.42679 | 380 ft | 27 kts | 252° |
| 2026-05-05 20:40 | 30.10377 | 31.42489 | 381 ft | 27 kts | 231° |
| 2026-05-05 20:40 | 30.10254 | 31.42322 | 381 ft | 28 kts | 229° |
| 2026-05-05 20:40 | 30.10124 | 31.42145 | 381 ft | 30 kts | 229° |
| 2026-05-05 20:41 | 30.09988 | 31.41960 | 381 ft | 31 kts | 230° |
| 2026-05-05 20:41 | 30.09903 | 31.41780 | 381 ft | 21 kts | 277° |
| 2026-05-05 20:41 | 30.09909 | 31.41609 | 381 ft | 22 kts | 263° |
| 2026-05-05 20:41 | 30.09882 | 31.41426 | 381 ft | 24 kts | 257° |
| 2026-05-05 20:42 | 30.09848 | 31.41235 | 381 ft | 25 kts | 259° |
| 2026-05-05 20:42 | 30.09814 | 31.41030 | 381 ft | 27 kts | 259° |
| 2026-05-05 20:42 | 30.09786 | 31.40815 | 381 ft | 27 kts | 274° |
| 2026-05-05 20:42 | 30.09891 | 31.40641 | 381 ft | 27 kts | 319° |
| 2026-05-05 20:43 | 30.10032 | 31.40498 | 380 ft | 27 kts | 321° |
| 2026-05-05 20:43 | 30.10176 | 31.40362 | 380 ft | 27 kts | 321° |
| 2026-05-05 20:43 | 30.10314 | 31.40229 | 380 ft | 21 kts | 320° |
| 2026-05-05 20:43 | 30.10385 | 31.40162 | 380 ft | 9 kts | 320° |
| 2026-05-05 20:44 | 30.10424 | 31.40099 | 380 ft | 10 kts | 285° |
| 2026-05-05 20:44 | 30.10402 | 31.40013 | 380 ft | 13 kts | 238° |
| 2026-05-05 20:44 | 30.10339 | 31.39922 | 380 ft | 16 kts | 229° |
| 2026-05-05 20:44 | 30.10259 | 31.39815 | 380 ft | 19 kts | 229° |
| 2026-05-05 20:45 | 30.10156 | 31.39598 | 380 ft | 6 kts | 336° |
| 2026-05-05 20:45 | 30.10197 | 31.39605 | 380 ft | 7 kts | 27° |
| 2026-05-05 20:45 | 30.10245 | 31.39646 | 380 ft | 10 kts | 41° |
| 2026-05-05 20:46 | 30.10300 | 31.39710 | 380 ft | 13 kts | 46° |
| 2026-05-05 20:46 | 30.10364 | 31.39780 | 380 ft | 12 kts | 27° |
| 2026-05-05 20:46 | 30.10432 | 31.39772 | 380 ft | 11 kts | 351° |
| 2026-05-05 20:46 | 30.10514 | 31.39761 | 380 ft | 13 kts | 1° |
| 2026-05-05 20:47 | 30.10589 | 31.39812 | 380 ft | 14 kts | 32° |
| 2026-05-05 20:47 | 30.10685 | 31.39816 | 380 ft | 15 kts | 347° |
| 2026-05-05 20:47 | 30.10758 | 31.39773 | 380 ft | 8 kts | 294° |
| 2026-05-05 20:47 | 30.10746 | 31.39713 | 380 ft | 9 kts | 256° |
| 2026-05-05 20:48 | 30.10745 | 31.39707 | 380 ft | 0 kts | 257° |